createdAt,value
2023-03-14T00:00:36.160Z,9.88
2023-03-14T00:10:36.489Z,9.88
2023-03-14T00:20:36.558Z,9.93
2023-03-14T00:30:36.717Z,9.96
2023-03-14T00:40:36.977Z,10.06
2023-03-14T00:50:36.960Z,10.15
2023-03-14T01:00:37.082Z,9.96
2023-03-14T01:10:37.257Z,10.07
2023-03-14T01:20:37.437Z,10.22
2023-03-14T01:30:37.661Z,10.15
2023-03-14T01:40:37.827Z,10.15
2023-03-14T01:50:38.336Z,10.24
2023-03-14T02:00:38.194Z,10.47
2023-03-14T02:10:38.298Z,10.52
2023-03-14T02:20:38.459Z,10.47
2023-03-14T02:30:38.677Z,10.46
2023-03-14T02:40:38.839Z,10.59
2023-03-14T02:50:39.380Z,10.59
2023-03-14T03:00:39.324Z,10.66
2023-03-14T03:10:39.454Z,10.62
2023-03-14T03:20:39.611Z,10.77
2023-03-14T03:30:39.962Z,10.53
2023-03-14T03:40:39.942Z,10.68
2023-03-14T03:50:40.164Z,10.71
2023-03-14T04:00:40.339Z,10.66
2023-03-14T04:10:40.619Z,10.60
2023-03-14T04:20:40.668Z,10.66
2023-03-14T04:30:40.879Z,10.73
2023-03-14T04:40:41.194Z,10.74
2023-03-14T04:50:41.310Z,10.55
2023-03-14T05:00:41.361Z,10.63
2023-03-14T05:10:41.736Z,10.40
2023-03-14T05:20:41.687Z,10.51
2023-03-14T05:30:41.981Z,10.62
2023-03-14T05:40:42.032Z,10.36
2023-03-14T05:50:42.261Z,10.36
2023-03-14T06:00:42.486Z,10.70
2023-03-14T06:10:42.785Z,10.53
2023-03-14T06:20:42.718Z,10.26
2023-03-14T06:30:42.992Z,10.42
2023-03-14T06:40:43.076Z,10.66
2023-03-14T06:50:43.602Z,10.81
2023-03-14T07:00:43.540Z,10.80
2023-03-14T07:10:43.871Z,10.65
2023-03-14T07:20:44.107Z,11.13
2023-03-14T07:30:44.091Z,11.07
2023-03-14T07:40:44.349Z,10.81
2023-03-14T07:50:44.347Z,10.76
2023-03-14T08:00:44.514Z,11.39
2023-03-14T08:10:44.748Z,11.97
2023-03-14T08:20:44.927Z,12.15
2023-03-14T08:30:47.659Z,12.34
2023-03-14T08:40:45.340Z,12.31
2023-03-14T08:50:45.630Z,12.29
2023-03-14T09:00:46.010Z,12.39
2023-03-14T09:10:45.920Z,12.49
2023-03-14T09:20:46.100Z,12.66
2023-03-14T09:30:46.326Z,13.71
2023-03-14T09:40:46.765Z,13.63
2023-03-14T09:50:46.786Z,14.20
2023-03-14T10:00:46.884Z,13.49
2023-03-14T10:10:47.068Z,13.84
2023-03-14T10:20:47.248Z,13.06
2023-03-14T10:30:47.579Z,12.89
2023-03-14T10:40:47.824Z,13.63
2023-03-14T10:50:47.815Z,14.19
2023-03-14T11:00:48.060Z,13.79
2023-03-14T11:10:48.196Z,13.46
2023-03-14T11:20:48.622Z,13.25
2023-03-14T11:30:48.549Z,12.19
2023-03-14T11:40:48.956Z,11.85
2023-03-14T11:50:48.778Z,11.07
2023-03-14T12:00:49.116Z,10.96
2023-03-14T12:10:49.102Z,10.65
2023-03-14T12:20:49.283Z,10.95
2023-03-14T12:30:49.624Z,11.09
2023-03-14T12:40:49.672Z,10.65
2023-03-14T12:50:50.265Z,11.01
2023-03-14T13:00:50.215Z,10.77
2023-03-14T13:10:50.455Z,10.70
2023-03-14T13:20:50.581Z,11.29
2023-03-14T13:30:50.761Z,10.46
2023-03-14T13:40:50.975Z,10.21
2023-03-14T13:50:51.085Z,10.40
2023-03-14T14:00:51.223Z,9.81
2023-03-14T14:10:51.651Z,9.30
2023-03-14T14:20:51.864Z,9.42
2023-03-14T14:30:51.908Z,9.24
2023-03-14T14:40:52.462Z,9.46
2023-03-14T14:50:52.184Z,9.70
2023-03-14T15:00:52.279Z,9.28
2023-03-14T15:10:52.633Z,9.25
2023-03-14T15:20:52.844Z,8.81
2023-03-14T15:30:52.868Z,9.15
2023-03-14T15:40:53.093Z,9.61
2023-03-14T15:50:53.197Z,9.79
2023-03-14T16:00:53.379Z,10.24
2023-03-14T16:10:53.659Z,8.86
2023-03-14T16:20:53.894Z,8.58
2023-03-14T16:30:53.782Z,8.76
2023-03-14T16:40:54.445Z,8.53
2023-03-14T16:50:54.144Z,8.28
2023-03-14T17:00:54.297Z,8.08
2023-03-14T17:10:54.463Z,7.99
2023-03-14T17:20:54.647Z,7.75
2023-03-14T17:30:55.046Z,7.75
2023-03-14T17:40:55.071Z,7.78
2023-03-14T17:50:57.976Z,7.71
2023-03-14T18:00:55.460Z,7.38
2023-03-14T18:10:55.577Z,7.07
2023-03-14T18:20:55.769Z,6.80
2023-03-14T18:30:56.308Z,6.58
2023-03-14T18:40:56.254Z,6.69
2023-03-14T18:50:56.384Z,6.38
2023-03-14T19:00:56.524Z,5.20
2023-03-14T19:10:56.805Z,5.13
2023-03-14T19:20:56.764Z,5.34
2023-03-14T19:30:57.018Z,5.25
2023-03-14T19:40:57.207Z,5.28
2023-03-14T19:50:57.470Z,5.17
2023-03-14T20:00:57.647Z,5.34
2023-03-14T20:10:57.796Z,5.60
2023-03-14T20:20:57.899Z,5.88
2023-03-14T20:30:58.258Z,5.77
2023-03-14T20:40:58.365Z,5.78
2023-03-14T20:50:58.503Z,5.77
2023-03-14T21:00:58.633Z,5.73
2023-03-14T21:10:58.918Z,5.95
2023-03-14T21:20:59.185Z,5.85
2023-03-14T21:30:59.190Z,5.57
2023-03-14T21:40:59.287Z,5.52
2023-03-14T21:50:59.579Z,5.07
2023-03-14T22:00:59.965Z,4.61
2023-03-14T22:10:59.902Z,4.37
2023-03-14T22:20:59.975Z,4.29
2023-03-14T22:31:03.190Z,4.39
2023-03-14T22:41:00.459Z,4.34
2023-03-14T22:51:00.596Z,4.36
2023-03-14T23:01:00.743Z,4.33
2023-03-14T23:11:00.874Z,4.34
2023-03-14T23:21:01.083Z,4.19
2023-03-14T23:31:01.837Z,2.35
2023-03-14T23:41:01.555Z,2.20
2023-03-14T23:51:01.712Z,2.01
